Time;durP1;ratioP1;P1;durP2;ratioP2;P2;SDS_P1;SDS_P2;PMS_P1;PMS_P2;Temp;Humidity;BMP_temperature;BMP_pressure;BME280_temperature;BME280_humidity;BME280_pressure;Samples;Min_cycle;Max_cycle;Signal;HPM_P1;HPM_P2
2021/06/06 00:05:58;;;;;;;38.55;22.10;;;16.30;99.90;;;;;;6730717;88;20318;-77
2021/06/06 00:15:59;;;;;;;35.72;21.87;;;16.30;99.90;;;;;;6734619;88;20368;-77
2021/06/06 00:26:01;;;;;;;38.03;22.23;;;16.20;99.90;;;;;;6734345;88;20760;-77
2021/06/06 00:36:03;;;;;;;40.55;23.08;;;16.20;99.90;;;;;;6737583;88;20181;-77
2021/06/06 00:46:05;;;;;;;40.10;24.30;;;16.20;99.90;;;;;;6741253;88;20799;-78
2021/06/06 00:56:12;;;;;;;44.30;25.92;;;16.10;99.90;;;;;;6746754;88;20178;-76
2021/06/06 01:06:17;;;;;;;46.15;27.55;;;16.10;99.90;;;;;;6753745;88;20217;-77
2021/06/06 01:16:32;;;;;;;48.10;28.35;;;16.00;99.90;;;;;;6757419;88;20199;-75
2021/06/06 01:26:35;;;;;;;47.10;26.85;;;15.90;99.90;;;;;;6753198;88;20214;-76
2021/06/06 01:36:49;;;;;;;40.92;24.87;;;16.00;99.90;;;;;;6746287;88;20204;-78
2021/06/06 01:46:54;;;;;;;47.40;27.50;;;16.00;99.90;;;;;;6744587;88;20220;-78
2021/06/06 01:56:55;;;;;;;49.40;27.55;;;15.90;99.90;;;;;;6745775;88;20201;-78
2021/06/06 02:07:17;;;;;;;44.53;26.15;;;15.80;99.90;;;;;;6743395;88;20207;-78
2021/06/06 02:17:30;;;;;;;45.53;25.90;;;15.70;99.90;;;;;;6740751;88;20217;-79
2021/06/06 02:28:03;;;;;;;49.95;28.60;;;15.60;99.90;;;;;;6743450;88;20206;-78
2021/06/06 02:38:25;;;;;;;49.10;26.17;;;15.50;99.90;;;;;;6742916;88;20212;-80
2021/06/06 02:58:41;;;;;;;39.90;21.25;;;15.30;99.90;;;;;;6772656;87;20236;-77
2021/06/06 03:08:42;;;;;;;37.72;22.30;;;15.30;99.90;;;;;;6757816;88;21023;-77
2021/06/06 03:18:46;;;;;;;44.83;23.43;;;15.30;99.90;;;;;;6758240;87;20195;-77
2021/06/06 03:28:47;;;;;;;40.20;21.90;;;15.20;99.90;;;;;;6764340;87;20714;-78
2021/06/06 03:38:48;;;;;;;37.75;20.02;;;15.30;99.90;;;;;;6756255;87;20188;-78
2021/06/06 03:48:49;;;;;;;38.70;21.52;;;15.20;99.90;;;;;;6757167;87;20446;-77
2021/06/06 03:58:49;;;;;;;36.47;20.30;;;15.20;99.90;;;;;;6757081;88;20727;-77
2021/06/06 04:08:51;;;;;;;40.53;22.10;;;15.20;99.90;;;;;;6757459;87;20195;-80
2021/06/06 04:18:52;;;;;;;44.00;23.98;;;15.00;99.90;;;;;;6756848;88;20556;-77
2021/06/06 04:28:52;;;;;;;46.37;24.95;;;15.00;99.90;;;;;;6756537;87;20191;-79
2021/06/06 04:38:53;;;;;;;37.77;21.47;;;15.00;99.90;;;;;;6757254;87;20194;-78
2021/06/06 04:48:54;;;;;;;34.40;20.27;;;15.00;99.90;;;;;;6756964;87;20251;-77
2021/06/06 04:58:56;;;;;;;33.38;17.98;;;15.00;99.90;;;;;;6756604;88;20641;-77
2021/06/06 05:08:57;;;;;;;27.73;16.65;;;15.10;99.90;;;;;;6757142;87;20213;-77
2021/06/06 05:18:58;;;;;;;30.05;16.73;;;15.20;99.90;;;;;;6756184;88;20222;-77
2021/06/06 05:28:58;;;;;;;29.48;16.58;;;15.10;99.90;;;;;;6753855;88;21152;-78
2021/06/06 05:38:59;;;;;;;28.90;16.20;;;15.10;99.90;;;;;;6758567;88;20237;-77
2021/06/06 05:48:59;;;;;;;29.65;17.02;;;15.10;99.90;;;;;;6761296;88;20209;-78
2021/06/06 05:59:00;;;;;;;31.62;18.70;;;15.10;99.90;;;;;;6761520;88;20225;-78
2021/06/06 06:09:01;;;;;;;35.58;18.85;;;15.00;99.90;;;;;;6763697;87;20217;-77
2021/06/06 06:19:02;;;;;;;36.28;20.10;;;14.90;99.90;;;;;;6762256;88;20357;-78
2021/06/06 06:29:04;;;;;;;38.70;20.73;;;14.90;99.90;;;;;;6763706;87;20248;-78
2021/06/06 06:39:06;;;;;;;39.70;21.12;;;15.00;99.90;;;;;;6760175;88;20193;-78
2021/06/06 06:49:06;;;;;;;41.50;21.35;;;14.90;99.90;;;;;;6763428;87;20676;-77
2021/06/06 06:59:07;;;;;;;40.10;21.90;;;14.80;99.90;;;;;;6761282;88;20216;-78
2021/06/06 07:09:07;;;;;;;38.85;21.00;;;14.70;99.90;;;;;;6757843;88;20582;-79
2021/06/06 07:19:08;;;;;;;35.95;20.17;;;14.70;99.90;;;;;;6758968;87;20199;-77
2021/06/06 07:29:12;;;;;;;36.92;20.48;;;14.80;99.90;;;;;;6754470;88;20253;-76
2021/06/06 07:39:13;;;;;;;39.67;21.30;;;14.80;99.90;;;;;;6758596;88;20206;-77
2021/06/06 07:49:15;;;;;;;34.75;20.27;;;14.80;99.90;;;;;;6758684;88;20339;-78
2021/06/06 07:59:16;;;;;;;38.08;20.48;;;14.80;99.90;;;;;;6756505;87;20176;-78
2021/06/06 08:09:16;;;;;;;42.45;22.15;;;15.00;99.90;;;;;;6750049;88;20249;-77
2021/06/06 08:19:17;;;;;;;43.40;22.80;;;15.10;99.90;;;;;;6753066;88;20658;-78
2021/06/06 08:29:17;;;;;;;42.35;22.45;;;15.20;99.90;;;;;;6759592;88;20196;-77
2021/06/06 08:39:21;;;;;;;48.92;24.27;;;15.20;99.90;;;;;;6756448;88;20769;-78
2021/06/06 08:49:22;;;;;;;52.03;26.23;;;15.10;99.90;;;;;;6759869;77;20779;-79
2021/06/06 08:59:38;;;;;;;50.23;26.23;;;15.00;99.90;;;;;;6755072;87;20184;-77
2021/06/06 09:09:43;;;;;;;53.63;25.95;;;15.10;99.90;;;;;;6748611;88;20501;-77
2021/06/06 09:19:48;;;;;;;48.87;23.58;;;15.10;99.90;;;;;;6755537;88;20176;-79
2021/06/06 09:30:06;;;;;;;39.28;21.52;;;15.40;99.90;;;;;;6765767;88;20340;-77
2021/06/06 09:40:14;;;;;;;42.70;22.62;;;15.60;99.90;;;;;;6764010;87;20271;-78
2021/06/06 09:50:20;;;;;;;47.10;23.55;;;15.70;99.90;;;;;;6761698;88;20275;-79
2021/06/06 10:00:22;;;;;;;47.67;24.33;;;15.90;99.90;;;;;;6759801;88;20215;-77
2021/06/06 10:10:30;;;;;;;50.22;25.50;;;15.90;99.90;;;;;;6758676;88;20238;-79
2021/06/06 10:20:34;;;;;;;51.28;25.17;;;16.00;99.90;;;;;;6759714;88;20210;-80
2021/06/06 10:31:13;;;;;;;59.07;27.90;;;16.00;99.90;;;;;;6763214;88;20305;-78
2021/06/06 10:41:51;;;;;;;62.42;28.50;;;15.90;99.90;;;;;;6733565;88;20267;-79
2021/06/06 10:52:06;;;;;;;61.50;27.92;;;16.00;99.90;;;;;;6740274;88;20686;-80
2021/06/06 11:02:13;;;;;;;69.07;31.33;;;16.20;99.90;;;;;;6743989;88;20214;-80
2021/06/06 11:12:32;;;;;;;62.05;28.87;;;16.00;99.90;;;;;;6740881;88;20219;-78
2021/06/06 11:22:36;;;;;;;55.20;26.73;;;16.20;99.90;;;;;;6737333;88;20200;-77
2021/06/06 11:32:57;;;;;;;54.85;26.40;;;16.80;99.90;;;;;;6736663;88;20251;-78
2021/06/06 11:43:09;;;;;;;59.78;28.35;;;17.50;99.90;;;;;;6740706;88;20690;-79
2021/06/06 11:53:22;;;;;;;73.15;38.00;;;17.70;99.90;;;;;;6736343;88;20361;-78
2021/06/06 12:03:34;;;;;;;63.22;32.45;;;17.90;99.90;;;;;;6736979;88;20169;-79
2021/06/06 12:13:39;;;;;;;56.08;30.20;;;18.60;99.90;;;;;;6735016;88;22845;-78
2021/06/06 12:23:50;;;;;;;55.60;29.85;;;18.70;99.90;;;;;;6735652;88;20214;-80
2021/06/06 12:33:51;;;;;;;50.67;29.92;;;18.50;99.90;;;;;;6742229;88;20295;-79
2021/06/06 12:43:54;;;;;;;48.03;27.30;;;18.40;99.90;;;;;;6756663;88;20193;-79
2021/06/06 12:54:05;;;;;;;43.40;25.67;;;18.50;99.90;;;;;;6757628;88;20199;-78
2021/06/06 13:04:16;;;;;;;36.80;22.73;;;18.70;99.90;;;;;;6748025;88;20205;-79
2021/06/06 13:14:22;;;;;;;35.10;20.37;;;19.20;99.90;;;;;;6756657;88;20192;-81
2021/06/06 13:24:22;;;;;;;27.58;18.30;;;19.40;99.90;;;;;;6750405;88;20214;-77
2021/06/06 13:34:23;;;;;;;29.48;18.92;;;19.20;99.90;;;;;;6752237;88;20311;-80
2021/06/06 13:44:24;;;;;;;27.73;18.25;;;19.30;99.90;;;;;;6750792;88;20192;-79
2021/06/06 13:54:25;;;;;;;30.17;18.85;;;19.60;99.90;;;;;;6753540;88;20310;-80
2021/06/06 14:04:26;;;;;;;29.60;18.12;;;19.60;99.90;;;;;;6749145;87;20274;-79
2021/06/06 14:14:27;;;;;;;25.80;16.92;;;19.10;99.90;;;;;;6751064;87;20711;-78
2021/06/06 14:24:28;;;;;;;25.33;15.90;;;18.80;99.90;;;;;;6747550;88;20352;-80
2021/06/06 14:34:28;;;;;;;24.10;14.87;;;18.70;99.90;;;;;;6748549;88;20350;-80
2021/06/06 14:44:29;;;;;;;23.58;15.18;;;18.90;99.90;;;;;;6755788;88;20645;-79
2021/06/06 14:54:29;;;;;;;29.58;18.55;;;18.80;99.90;;;;;;6750423;88;20200;-79
2021/06/06 15:04:30;;;;;;;29.30;17.93;;;18.80;99.90;;;;;;6767355;88;20302;-78
2021/06/06 15:14:31;;;;;;;28.02;16.65;;;18.90;99.90;;;;;;6760100;88;20216;-79
2021/06/06 15:24:31;;;;;;;27.62;15.60;;;18.90;99.90;;;;;;6774326;88;20270;-79
2021/06/06 15:34:32;;;;;;;26.37;15.57;;;18.80;99.90;;;;;;6759109;88;20196;-80
2021/06/06 15:44:33;;;;;;;28.98;17.15;;;18.60;99.90;;;;;;6758940;88;20289;-79
2021/06/06 15:54:35;;;;;;;26.60;16.90;;;18.70;99.90;;;;;;6753894;88;21140;-79
2021/06/06 16:04:36;;;;;;;28.05;16.77;;;18.70;99.90;;;;;;6741828;88;20182;-79
2021/06/06 16:14:37;;;;;;;25.55;16.40;;;18.60;99.90;;;;;;6749684;88;20193;-81
2021/06/06 16:24:37;;;;;;;24.20;16.40;;;18.80;99.90;;;;;;6750113;88;20227;-78
2021/06/06 16:34:38;;;;;;;26.80;16.10;;;18.90;99.90;;;;;;6757044;88;20283;-80
2021/06/06 16:44:39;;;;;;;28.12;16.15;;;18.80;99.90;;;;;;6756622;88;20368;-79
2021/06/06 16:54:40;;;;;;;23.70;13.95;;;18.80;99.90;;;;;;6751923;87;20922;-79
2021/06/06 17:04:41;;;;;;;23.83;14.87;;;18.80;99.90;;;;;;6751620;87;20718;-79
2021/06/06 17:14:41;;;;;;;24.77;15.00;;;18.90;99.90;;;;;;6753954;88;20363;-79
2021/06/06 17:24:42;;;;;;;24.48;14.43;;;18.90;99.90;;;;;;6748781;88;20209;-79
2021/06/06 17:34:43;;;;;;;21.80;13.38;;;18.70;99.90;;;;;;6747910;88;20360;-78
2021/06/06 17:44:44;;;;;;;31.87;19.02;;;18.60;99.90;;;;;;6750535;88;20184;-79
2021/06/06 17:54:46;;;;;;;27.87;18.30;;;18.50;99.90;;;;;;6747975;88;20672;-78
2021/06/06 18:04:47;;;;;;;30.05;19.27;;;18.40;99.90;;;;;;6747232;88;20180;-79
2021/06/06 18:14:47;;;;;;;26.13;17.80;;;18.50;99.90;;;;;;6752998;88;20218;-77
2021/06/06 18:24:49;;;;;;;31.30;18.98;;;18.30;99.90;;;;;;6758195;88;20281;-81
2021/06/06 18:34:50;;;;;;;29.37;18.87;;;18.20;99.90;;;;;;6754499;88;20197;-77
2021/06/06 18:44:57;;;;;;;31.67;19.17;;;18.10;99.90;;;;;;6756555;88;20705;-81
2021/06/06 18:54:57;;;;;;;26.42;17.40;;;18.00;99.90;;;;;;6754086;88;20185;-82
2021/06/06 19:04:58;;;;;;;29.25;17.67;;;18.00;99.90;;;;;;6751016;88;20180;-82
2021/06/06 19:14:59;;;;;;;23.35;16.30;;;17.90;99.90;;;;;;6748150;88;20201;-78
2021/06/06 19:24:59;;;;;;;26.48;16.60;;;17.80;99.90;;;;;;6748149;88;20184;-77
2021/06/06 19:35:00;;;;;;;22.23;14.80;;;17.90;99.90;;;;;;6740858;88;20195;-78
2021/06/06 19:45:02;;;;;;;20.67;14.57;;;17.80;99.90;;;;;;6750787;88;20228;-79
2021/06/06 19:55:05;;;;;;;21.85;15.35;;;17.70;99.90;;;;;;6754712;88;20218;-78
2021/06/06 20:05:09;;;;;;;23.70;15.85;;;17.60;99.90;;;;;;6751145;88;20397;-78
2021/06/06 20:15:12;;;;;;;23.60;15.93;;;17.60;99.90;;;;;;6747346;88;20346;-78
2021/06/06 20:25:13;;;;;;;22.20;15.05;;;17.40;99.90;;;;;;6747791;88;20219;-79
2021/06/06 20:35:28;;;;;;;23.62;15.15;;;17.50;99.90;;;;;;6747969;88;20294;-77
2021/06/06 20:45:30;;;;;;;;;;;17.50;99.90;;;;;;6729680;77;20252;-79
2021/06/06 20:55:31;;;;;;;20.37;13.93;;;17.40;99.90;;;;;;6739882;88;20052;-79
2021/06/06 21:05:32;;;;;;;20.65;15.65;;;17.40;99.90;;;;;;6742285;88;20214;-80
2021/06/06 21:15:33;;;;;;;20.15;14.25;;;17.50;99.90;;;;;;6748503;88;20216;-79
2021/06/06 21:25:34;;;;;;;23.40;15.63;;;17.40;99.90;;;;;;6737169;88;20207;-81
2021/06/06 21:35:34;;;;;;;25.02;16.12;;;17.40;99.90;;;;;;6739806;88;20200;-81
2021/06/06 21:45:36;;;;;;;20.87;15.30;;;17.30;99.90;;;;;;6731762;88;20222;-81
2021/06/06 21:55:38;;;;;;;23.20;15.85;;;17.30;99.90;;;;;;6747205;88;20587;-80
2021/06/06 22:05:39;;;;;;;23.45;15.70;;;17.20;99.90;;;;;;6747781;88;20220;-80
2021/06/06 22:15:45;;;;;;;20.58;14.75;;;17.30;99.90;;;;;;6743999;88;20295;-80
2021/06/06 22:26:23;;;;;;;24.52;15.63;;;17.20;99.90;;;;;;6751407;88;20157;-80
2021/06/06 22:37:01;;;;;;;21.65;14.75;;;17.20;99.90;;;;;;6749570;88;20246;-80
2021/06/06 22:47:41;;;;;;;20.17;14.50;;;17.10;99.90;;;;;;6749460;88;20264;-80
2021/06/06 22:58:19;;;;;;;21.58;14.85;;;17.10;99.90;;;;;;6749689;88;20707;-81
2021/06/06 23:08:58;;;;;;;21.42;15.15;;;17.00;99.90;;;;;;6750413;88;20185;-80
2021/06/06 23:18:58;;;;;;;22.58;14.48;;;17.00;99.90;;;;;;6752882;88;20197;-80
2021/06/06 23:28:59;;;;;;;22.50;14.90;;;17.00;99.90;;;;;;6752695;88;20215;-81
2021/06/06 23:38:59;;;;;;;21.25;15.18;;;17.00;99.90;;;;;;6752269;88;20298;-81
2021/06/06 23:49:01;;;;;;;22.23;15.68;;;17.00;99.90;;;;;;6753101;88;20231;-81
2021/06/06 23:59:02;;;;;;;23.60;15.38;;;17.00;99.90;;;;;;6751526;88;20198;-81
